WLF2463 KJFK-WSSS
Flight info
| Callsign | WLF2463 |
|---|---|
| Flight time | N/A |
| Altitude | 29000 |
| Route | BETTE DCT ACK DCT TUSKY N501B ALLRY/M084F310 NATV GISTI/N0488F310 DCT ENJEX/N0483F330 DCT ADHAV DCT AXNEF DCT ZIPWE DCT OZZIL DCT SAWPE Q63 CPT UL9 BIG L607 KONAN DCT KOK DCT REMBA DCT MATUG DCT BOMBI DCT TENLO DCT DEXIT DCT PESAT DCT TEGRI DCT UDROS DCT CRM/N0480F350 UM11 TBN UR317 REBLO M11 LUSAL N199 BAKUV N701 LARGI B701 TUGTA A909 LEMOD N644 DOBAT/N0485F370 N644 DI A466 SULOM M890 LKN R460 BBN P646 PTN/N0483F390 P646 POXEM M626 IKOGA Y24 PASVA Y514 NUFFA DCT PIBAP DCT PASPU DCT NYLON |
| Aircraft | B77L/H-SDE1E2E3FGHIJ2J3J4J5M1RWXY/LB1D1 |
Departure
| Time | 2026-05-09 03:54 |
|---|---|
| Airport | John F. Kennedy International Airport (KJFK) |
Arrival
| Time | N/A |
|---|---|
| Airport | Singapore Changi Airport (WSSS) |
| Time | Latitude | Longitude | Altitude | Speed | Heading |
|---|---|---|---|---|---|
| 2026-05-09 03:17 | 40.64435 | -73.77974 | 30 ft | 0 kts | 231° |
| 2026-05-09 03:42 | 40.64446 | -73.77953 | 30 ft | 4 kts | 256° |
| 2026-05-09 03:42 | 40.64451 | -73.77918 | 30 ft | 4 kts | 255° |
| 2026-05-09 03:42 | 40.64455 | -73.77892 | 30 ft | 3 kts | 261° |
| 2026-05-09 03:42 | 40.64450 | -73.77863 | 30 ft | 4 kts | 292° |
| 2026-05-09 03:43 | 40.64442 | -73.77830 | 30 ft | 4 kts | 291° |
| 2026-05-09 03:43 | 40.64432 | -73.77797 | 30 ft | 4 kts | 299° |
| 2026-05-09 03:43 | 40.64420 | -73.77770 | 30 ft | 1 kts | 299° |
| 2026-05-09 03:43 | 40.64419 | -73.77769 | 30 ft | 0 kts | 299° |
| 2026-05-09 03:46 | 40.64415 | -73.77803 | 30 ft | 10 kts | 240° |
| 2026-05-09 03:46 | 40.64385 | -73.77806 | 29 ft | 10 kts | 156° |
| 2026-05-09 03:46 | 40.64348 | -73.77711 | 30 ft | 12 kts | 115° |
| 2026-05-09 03:46 | 40.64283 | -73.77641 | 29 ft | 12 kts | 148° |
| 2026-05-09 03:47 | 40.64209 | -73.77585 | 27 ft | 12 kts | 151° |
| 2026-05-09 03:47 | 40.64160 | -73.77548 | 28 ft | 7 kts | 150° |
| 2026-05-09 03:47 | 40.64119 | -73.77507 | 27 ft | 8 kts | 136° |
| 2026-05-09 03:47 | 40.64103 | -73.77481 | 29 ft | 0 kts | 127° |
| 2026-05-09 03:48 | 40.64102 | -73.77480 | 29 ft | 0 kts | 127° |
| 2026-05-09 03:48 | 40.64100 | -73.77477 | 29 ft | 4 kts | 127° |
| 2026-05-09 03:49 | 40.64046 | -73.77381 | 27 ft | 22 kts | 126° |
| 2026-05-09 03:49 | 40.63925 | -73.77175 | 30 ft | 30 kts | 127° |
| 2026-05-09 03:49 | 40.63798 | -73.76963 | 28 ft | 20 kts | 136° |
| 2026-05-09 03:49 | 40.63675 | -73.76916 | 27 ft | 19 kts | 177° |
| 2026-05-09 03:50 | 40.63542 | -73.76917 | 27 ft | 19 kts | 183° |
| 2026-05-09 03:50 | 40.63410 | -73.76934 | 27 ft | 19 kts | 187° |
| 2026-05-09 03:50 | 40.63278 | -73.76944 | 27 ft | 19 kts | 182° |
| 2026-05-09 03:50 | 40.63146 | -73.76957 | 27 ft | 19 kts | 192° |
| 2026-05-09 03:51 | 40.63077 | -73.76991 | 30 ft | 0 kts | 208° |
| 2026-05-09 03:51 | 40.63075 | -73.76993 | 28 ft | 2 kts | 208° |
| 2026-05-09 03:51 | 40.63022 | -73.77029 | 29 ft | 11 kts | 206° |
| 2026-05-09 03:52 | 40.62944 | -73.77089 | 29 ft | 16 kts | 212° |
| 2026-05-09 03:52 | 40.62848 | -73.77159 | 30 ft | 16 kts | 201° |
| 2026-05-09 03:52 | 40.62793 | -73.77198 | 27 ft | 7 kts | 211° |
| 2026-05-09 03:52 | 40.62786 | -73.77208 | 25 ft | 5 kts | 227° |
| 2026-05-09 03:53 | 40.62794 | -73.77254 | 26 ft | 6 kts | 313° |
| 2026-05-09 03:53 | 40.62868 | -73.77350 | 28 ft | 30 kts | 309° |
| 2026-05-09 03:53 | 40.63047 | -73.77721 | 30 ft | 79 kts | 299° |
| 2026-05-09 03:53 | 40.63460 | -73.78635 | 27 ft | 154 kts | 301° |
| 2026-05-09 03:54 | 40.64130 | -73.80104 | 46 ft | 211 kts | 301° |
| 2026-05-09 03:54 | 40.64904 | -73.81799 | 669 ft | 219 kts | 300° |
| 2026-05-09 03:54 | 40.65704 | -73.83580 | 1253 ft | 236 kts | 296° |
| 2026-05-09 03:54 | 40.66299 | -73.85637 | 1927 ft | 240 kts | 268° |
| 2026-05-09 03:55 | 40.65888 | -73.87663 | 2836 ft | 226 kts | 245° |
| 2026-05-09 03:55 | 40.65371 | -73.89603 | 3435 ft | 229 kts | 248° |
| 2026-05-09 03:55 | 40.64426 | -73.91369 | 3785 ft | 246 kts | 224° |
| 2026-05-09 03:55 | 40.62964 | -73.92516 | 3646 ft | 244 kts | 203° |
| 2026-05-09 03:56 | 40.61339 | -73.93027 | 3550 ft | 239 kts | 194° |
| 2026-05-09 03:56 | 40.59730 | -73.93343 | 3453 ft | 231 kts | 194° |
| 2026-05-09 03:56 | 40.58109 | -73.93667 | 3734 ft | 241 kts | 194° |
| 2026-05-09 03:56 | 40.56466 | -73.93977 | 4059 ft | 235 kts | 194° |
| 2026-05-09 03:57 | 40.54841 | -73.94269 | 4401 ft | 243 kts | 194° |
| 2026-05-09 03:57 | 40.53177 | -73.94540 | 4714 ft | 239 kts | 194° |
| 2026-05-09 03:57 | 40.51517 | -73.94796 | 5049 ft | 242 kts | 194° |
| 2026-05-09 03:57 | 40.49831 | -73.95020 | 5366 ft | 246 kts | 189° |
| 2026-05-09 03:58 | 40.48060 | -73.94515 | 5453 ft | 282 kts | 153° |
| 2026-05-09 03:58 | 40.46639 | -73.92604 | 5775 ft | 306 kts | 118° |
| 2026-05-09 03:58 | 40.46079 | -73.89871 | 6237 ft | 317 kts | 90° |
| 2026-05-09 03:58 | 40.46203 | -73.86969 | 6711 ft | 321 kts | 78° |
| 2026-05-09 03:59 | 40.46709 | -73.84106 | 7290 ft | 322 kts | 70° |
| 2026-05-09 03:59 | 40.47380 | -73.81296 | 7938 ft | 323 kts | 68° |
| 2026-05-09 03:59 | 40.48096 | -73.78468 | 8514 ft | 328 kts | 68° |
| 2026-05-09 03:59 | 40.48821 | -73.75601 | 9086 ft | 332 kts | 68° |
| 2026-05-09 04:00 | 40.49530 | -73.72744 | 9677 ft | 334 kts | 69° |
| 2026-05-09 04:00 | 40.50242 | -73.69817 | 10232 ft | 338 kts | 69° |
| 2026-05-09 04:00 | 40.50964 | -73.66807 | 10445 ft | 355 kts | 69° |